Ocean Highway — H3IE — position and weather

sailwx.info

Track history (hours):
 
Tides and Currents Weather Stations Pressure Air Temp Water Temp Dewpoint Dewpoint Depression Visibility Wind Speed Wind Dir Waves Ship Positions

Ocean Highway

Last reported at 2015-Jul-03 15:29 UTC. Time now 2015-Jul-04 01:41 UTC.
Position N 29°37' E 123°09'.

Length 179.1 m; beam 32.2 m.

Type: Cargo ship. MMSI: 353951000.

Date/timePositionNaut miles runAvg speedWind from/ knotsBaromVisibWave heightAir tempDewpointWater temp
2015-Jul-03 15:29N 29°37' E 123°09'1414.9
2015-Jul-03 14:33N 29°49' E 123°16'1515.0
2015-Jul-03 13:33N 30°03' E 123°22'1515.0
2015-Jul-03 12:33N 30°18' E 123°25'2215.3
2015-Jul-03 11:06N 30°40' E 123°17'2516.0
2015-Jul-03 09:33N 30°58' E 122°58'3315.1
2015-Jul-03 07:21N 31°06' E 122°20'1214.6
2015-Jul-03 06:32N 31°12' E 122°08'1212.8
2015-Jul-03 05:34N 31°16' E 121°54'1010.5
2015-Jul-03 04:34N 31°19' E 121°43'1 1.4
2015-Jul-03 03:33N 31°19' E 121°41'0 0.0
2015-Jul-03 02:33N 31°19' E 121°41'0 0.0
2015-Jul-03 01:33N 31°19' E 121°41'0 0.0
2015-Jul-03 00:33N 31°19' E 121°41'0 0.0
2015-Jul-02 23:33N 31°19' E 121°41'0 0.0
2015-Jul-02 22:33N 31°19' E 121°41'0 0.0
2015-Jul-02 21:30N 31°19' E 121°41'0 0.0
2015-Jul-02 20:33N 31°19' E 121°41'0 0.0
2015-Jul-02 19:33N 31°19' E 121°41'0 0.0
2015-Jul-02 18:33N 31°19' E 121°41'0 0.0
2015-Jul-02 17:33N 31°19' E 121°41'0 0.0
2015-Jul-02 16:33N 31°19' E 121°41'0 0.0
2015-Jul-02 15:31N 31°19' E 121°41'1 1.4
2015-Jul-02 14:33N 31°20' E 121°42'10 9.7
2015-Jul-02 13:33N 31°16' E 121°53'1010.4
2015-Jul-02 12:33N 31°14' E 122°05'9 8.6
2015-Jul-02 11:33N 31°09' E 122°13'1010.3
2015-Jul-02 10:33N 31°07' E 122°25'8 8.4
2015-Jul-02 09:33N 31°07' E 122°35'10 9.9
2015-Jul-02 08:33N 31°08' E 122°46'1615.2
2015-Jul-02 07:31N 31°14' E 123°03'1814.9
2015-Jul-02 06:20N 31°21' E 123°22'2513.5
2015-Jul-02 04:28N 31°44' E 123°35'1314.5
2015-Jul-02 03:34N 31°57' E 123°37'1514.7
2015-Jul-02 02:32N 32°09' E 123°27'1414.4
2015-Jul-02 01:33N 32°21' E 123°17'1514.7
2015-Jul-02 00:34N 32°32' E 123°07'1714.3
2015-Jul-01 23:24N 32°47' E 122°57'24515.4
2015-Jul-01 07:32N 36°52' E 123°08'1515.0
2015-Jul-01 06:33N 37°06' E 123°11'1615.9
2015-Jul-01 05:32N 37°22' E 123°08'1615.7
2015-Jul-01 04:33N 37°37' E 123°02'1716.9
2015-Jul-01 03:33N 37°46' E 122°44'1716.7
2015-Jul-01 02:33N 37°54' E 122°25'1616.2
2015-Jul-01 01:34N 38°01' E 122°07'1615.9
2015-Jul-01 00:32N 38°09' E 121°49'1515.7
2015-Jun-30 23:33N 38°16' E 121°32'5215.1
2015-Jun-30 20:06N 38°35' E 120°30'916.6
2015-Jun-30 19:34N 38°37' E 120°18'2016.3
2015-Jun-30 18:20N 38°40' E 119°53'1215.9
2015-Jun-30 17:33N 38°42' E 119°37'4715.3
2015-Jun-30 14:31N 38°48' E 118°38'3014.0
2015-Jun-30 12:20N 38°56' E 118°00'1012.4
2015-Jun-30 11:33N 38°58' E 117°48'3 3.4
2015-Jun-30 10:33N 39°01' E 117°46'0 0.0
2015-Jun-30 09:33N 39°01' E 117°46'0 0.0
2015-Jun-30 08:33N 39°01' E 117°46'0 0.0
2015-Jun-30 07:33N 39°01' E 117°46'0 0.0
2015-Jun-30 06:33N 39°01' E 117°46'0 0.0
2015-Jun-30 05:33N 39°01' E 117°46'0 0.0
2015-Jun-30 04:33N 39°01' E 117°46'0 0.0
2015-Jun-30 03:33N 39°01' E 117°46'0 0.0
2015-Jun-30 02:33N 39°01' E 117°46'0 0.0
2015-Jun-30 01:33N 39°01' E 117°46'0 0.0
2015-Jun-30 00:33N 39°01' E 117°46'0 0.0
2015-Jun-29 23:15N 39°01' E 117°46'0 0.0
2015-Jun-29 22:33N 39°01' E 117°46'0 0.0
2015-Jun-29 21:33N 39°01' E 117°46'0 0.0
2015-Jun-29 20:33N 39°01' E 117°46'0 0.0
2015-Jun-29 19:33N 39°01' E 117°46'0 0.0
2015-Jun-29 18:33N 39°01' E 117°46'1 0.7
2015-Jun-29 17:33N 39°01' E 117°47'10 9.5
2015-Jun-29 16:29N 38°57' E 117°59'16712.9
2015-Jun-29 03:32N 38°23' E 121°28'1918.2
2015-Jun-29 02:29N 38°14' E 121°50'241 9.6
2015-Jun-28 01:26N 37°03' E 126°40'  
2015-Jun-25 07:25N 34°56' E 139°38'1416.7
2015-Jun-25 06:33N 35°09' E 139°45'1111.5
2015-Jun-25 05:33N 35°21' E 139°42'7 6.7
2015-Jun-25 04:32N 35°27' E 139°41'0 0.0
2015-Jun-25 03:32N 35°27' E 139°41'0 0.0
2015-Jun-25 02:32N 35°27' E 139°41'0 0.0
2015-Jun-25 01:32N 35°27' E 139°41'0 0.0
2015-Jun-25 00:29N 35°27' E 139°41'0 0.0
2015-Jun-24 23:32N 35°27' E 139°41'0 0.0
2015-Jun-24 22:32N 35°27' E 139°41'2 1.6
2015-Jun-24 21:33N 35°26' E 139°43'1010.0
2015-Jun-24 20:33N 35°16' E 139°46'9 9.1
2015-Jun-24 19:33N 35°07' E 139°46'1110.6
2015-Jun-24 18:34N 34°57' E 139°42'1615.6
2015-Jun-24 17:33N 34°50' E 139°59'1818.0
2015-Jun-24 16:33N 34°54' E 140°20'  
Track history (hours):
 
Tides and Currents Weather Stations Pressure Air Temp Water Temp Dewpoint Dewpoint Depression Visibility Wind Speed Wind Dir Waves Ship Positions

Ocean Highway

Last reported at 2015-Jul-03 15:29 UTC. Time now 2015-Jul-04 01:41 UTC.
Position N 29°37' E 123°09'.

Length 179.1 m; beam 32.2 m.

Type: Cargo ship. MMSI: 353951000.

Date/timePositionNaut miles runAvg speedWind from/ knotsBaromVisibWave heightAir tempDewpointWater temp
2015-Jul-03 15:29N 29°37' E 123°09'1414.9
2015-Jul-03 14:33N 29°49' E 123°16'1515.0
2015-Jul-03 13:33N 30°03' E 123°22'1515.0
2015-Jul-03 12:33N 30°18' E 123°25'2215.3
2015-Jul-03 11:06N 30°40' E 123°17'2516.0
2015-Jul-03 09:33N 30°58' E 122°58'3315.1
2015-Jul-03 07:21N 31°06' E 122°20'1214.6
2015-Jul-03 06:32N 31°12' E 122°08'1212.8
2015-Jul-03 05:34N 31°16' E 121°54'1010.5
2015-Jul-03 04:34N 31°19' E 121°43'1 1.4
2015-Jul-03 03:33N 31°19' E 121°41'0 0.0
2015-Jul-03 02:33N 31°19' E 121°41'0 0.0
2015-Jul-03 01:33N 31°19' E 121°41'0 0.0
2015-Jul-03 00:33N 31°19' E 121°41'0 0.0
2015-Jul-02 23:33N 31°19' E 121°41'0 0.0
2015-Jul-02 22:33N 31°19' E 121°41'0 0.0
2015-Jul-02 21:30N 31°19' E 121°41'0 0.0
2015-Jul-02 20:33N 31°19' E 121°41'0 0.0
2015-Jul-02 19:33N 31°19' E 121°41'0 0.0
2015-Jul-02 18:33N 31°19' E 121°41'0 0.0
2015-Jul-02 17:33N 31°19' E 121°41'0 0.0
2015-Jul-02 16:33N 31°19' E 121°41'0 0.0
2015-Jul-02 15:31N 31°19' E 121°41'1 1.4
2015-Jul-02 14:33N 31°20' E 121°42'10 9.7
2015-Jul-02 13:33N 31°16' E 121°53'1010.4
2015-Jul-02 12:33N 31°14' E 122°05'9 8.6
2015-Jul-02 11:33N 31°09' E 122°13'1010.3
2015-Jul-02 10:33N 31°07' E 122°25'8 8.4
2015-Jul-02 09:33N 31°07' E 122°35'10 9.9
2015-Jul-02 08:33N 31°08' E 122°46'1615.2
2015-Jul-02 07:31N 31°14' E 123°03'1814.9
2015-Jul-02 06:20N 31°21' E 123°22'2513.5
2015-Jul-02 04:28N 31°44' E 123°35'1314.5
2015-Jul-02 03:34N 31°57' E 123°37'1514.7
2015-Jul-02 02:32N 32°09' E 123°27'1414.4
2015-Jul-02 01:33N 32°21' E 123°17'1514.7
2015-Jul-02 00:34N 32°32' E 123°07'1714.3
2015-Jul-01 23:24N 32°47' E 122°57'24515.4
2015-Jul-01 07:32N 36°52' E 123°08'1515.0
2015-Jul-01 06:33N 37°06' E 123°11'1615.9
2015-Jul-01 05:32N 37°22' E 123°08'1615.7
2015-Jul-01 04:33N 37°37' E 123°02'1716.9
2015-Jul-01 03:33N 37°46' E 122°44'1716.7
2015-Jul-01 02:33N 37°54' E 122°25'1616.2
2015-Jul-01 01:34N 38°01' E 122°07'1615.9
2015-Jul-01 00:32N 38°09' E 121°49'1515.7
2015-Jun-30 23:33N 38°16' E 121°32'5215.1
2015-Jun-30 20:06N 38°35' E 120°30'916.6
2015-Jun-30 19:34N 38°37' E 120°18'2016.3
2015-Jun-30 18:20N 38°40' E 119°53'1215.9
2015-Jun-30 17:33N 38°42' E 119°37'4715.3
2015-Jun-30 14:31N 38°48' E 118°38'3014.0
2015-Jun-30 12:20N 38°56' E 118°00'1012.4
2015-Jun-30 11:33N 38°58' E 117°48'3 3.4
2015-Jun-30 10:33N 39°01' E 117°46'0 0.0
2015-Jun-30 09:33N 39°01' E 117°46'0 0.0
2015-Jun-30 08:33N 39°01' E 117°46'0 0.0
2015-Jun-30 07:33N 39°01' E 117°46'0 0.0
2015-Jun-30 06:33N 39°01' E 117°46'0 0.0
2015-Jun-30 05:33N 39°01' E 117°46'0 0.0
2015-Jun-30 04:33N 39°01' E 117°46'0 0.0
2015-Jun-30 03:33N 39°01' E 117°46'0 0.0
2015-Jun-30 02:33N 39°01' E 117°46'0 0.0
2015-Jun-30 01:33N 39°01' E 117°46'0 0.0
2015-Jun-30 00:33N 39°01' E 117°46'0 0.0
2015-Jun-29 23:15N 39°01' E 117°46'0 0.0
2015-Jun-29 22:33N 39°01' E 117°46'0 0.0
2015-Jun-29 21:33N 39°01' E 117°46'0 0.0
2015-Jun-29 20:33N 39°01' E 117°46'0 0.0
2015-Jun-29 19:33N 39°01' E 117°46'0 0.0
2015-Jun-29 18:33N 39°01' E 117°46'1 0.7
2015-Jun-29 17:33N 39°01' E 117°47'10 9.5
2015-Jun-29 16:29N 38°57' E 117°59'16712.9
2015-Jun-29 03:32N 38°23' E 121°28'1918.2
2015-Jun-29 02:29N 38°14' E 121°50'241 9.6
2015-Jun-28 01:26N 37°03' E 126°40'  
2015-Jun-25 07:25N 34°56' E 139°38'1416.7
2015-Jun-25 06:33N 35°09' E 139°45'1111.5
2015-Jun-25 05:33N 35°21' E 139°42'7 6.7
2015-Jun-25 04:32N 35°27' E 139°41'0 0.0
2015-Jun-25 03:32N 35°27' E 139°41'0 0.0
2015-Jun-25 02:32N 35°27' E 139°41'0 0.0
2015-Jun-25 01:32N 35°27' E 139°41'0 0.0
2015-Jun-25 00:29N 35°27' E 139°41'0 0.0
2015-Jun-24 23:32N 35°27' E 139°41'0 0.0
2015-Jun-24 22:32N 35°27' E 139°41'2 1.6
2015-Jun-24 21:33N 35°26' E 139°43'1010.0
2015-Jun-24 20:33N 35°16' E 139°46'9 9.1
2015-Jun-24 19:33N 35°07' E 139°46'1110.6
2015-Jun-24 18:34N 34°57' E 139°42'1615.6
2015-Jun-24 17:33N 34°50' E 139°59'1818.0
2015-Jun-24 16:33N 34°54' E 140°20'  

Dump ship's entire track history